Time;durP1;ratioP1;P1;durP2;ratioP2;P2;SDS_P1;SDS_P2;PMS_P1;PMS_P2;Temp;Humidity;BMP_temperature;BMP_pressure;BME280_temperature;BME280_humidity;BME280_pressure;Samples;Min_cycle;Max_cycle;Signal;HPM_P1;HPM_P2
2022/01/14 00:01:53;;;;;;;19.25;7.25;;;;;;;5.71;61.55;99957.28;4459006;32;20512;-80
2022/01/14 00:04:19;;;;;;;18.75;7.35;;;;;;;5.92;60.76;99950.84;4486377;32;20362;-80
2022/01/14 00:06:45;;;;;;;20.05;7.60;;;;;;;6.10;60.19;99937.50;4486186;32;20088;-80
2022/01/14 00:09:12;;;;;;;20.50;8.13;;;;;;;5.71;61.39;99944.22;4472024;32;20153;-80
2022/01/14 00:11:51;;;;;;;16.83;6.62;;;;;;;6.00;60.61;99941.13;4472340;32;20100;-80
2022/01/14 00:16:43;;;;;;;21.58;8.20;;;;;;;6.21;59.65;99928.56;4486223;32;20455;-80
2022/01/14 00:19:09;;;;;;;22.02;7.90;;;;;;;6.14;59.58;99927.81;4486121;32;20084;-80
2022/01/14 00:21:37;;;;;;;20.77;7.45;;;;;;;6.19;59.30;99923.38;4471967;32;20080;-80
2022/01/14 00:32:36;;;;;;;22.20;8.10;;;;;;;6.12;59.19;99924.34;4486032;32;20110;-80
2022/01/14 00:35:02;;;;;;;19.60;7.70;;;;;;;6.14;59.21;99919.09;4486092;32;20068;-80
2022/01/14 00:37:27;;;;;;;22.13;8.35;;;;;;;6.23;58.94;99913.72;4485864;32;20391;-81
2022/01/14 00:39:53;;;;;;;23.35;8.68;;;;;;;6.22;59.04;99906.75;4485858;32;20111;-80
2022/01/14 00:42:18;;;;;;;17.48;7.32;;;;;;;6.04;59.81;99907.94;4485739;32;20096;-80
2022/01/14 00:44:44;;;;;;;19.65;7.95;;;;;;;5.74;60.97;99912.81;4471410;32;20080;-80
2022/01/14 00:47:09;;;;;;;20.60;8.00;;;;;;;5.84;60.72;99914.38;4485628;32;20088;-81
2022/01/14 00:49:34;;;;;;;18.37;6.97;;;;;;;5.99;60.29;99901.94;4471433;32;20140;-81
2022/01/14 00:52:00;;;;;;;20.70;7.57;;;;;;;6.16;59.92;99912.09;4485731;32;20076;-80
2022/01/14 00:54:26;;;;;;;20.73;8.25;;;;;;;6.11;59.88;99906.97;4471357;32;20464;-80
2022/01/14 00:57:14;;;;;;;20.80;7.75;;;;;;;6.12;59.74;99913.91;4485626;32;20089;-80
2022/01/14 00:59:39;;;;;;;21.48;7.87;;;;;;;6.23;59.53;99905.88;4487945;32;20176;-81
2022/01/14 01:02:09;;;;;;;21.30;7.78;;;;;;;6.16;59.51;99906.84;4473691;32;20080;-80
2022/01/14 01:04:37;;;;;;;18.60;7.40;;;;;;;6.16;59.53;99897.28;4487844;32;20091;-80
2022/01/14 01:07:06;;;;;;;21.80;8.48;;;;;;;6.15;59.46;99892.91;4473302;32;20642;-80
2022/01/14 01:09:32;;;;;;;22.02;8.65;;;;;;;6.15;59.25;99894.69;4473661;32;20124;-80
2022/01/14 01:14:40;;;;;;;18.87;7.60;;;;;;;5.94;59.67;99881.06;4474293;32;20076;-80
2022/01/14 01:17:06;;;;;;;20.85;7.82;;;;;;;5.90;59.79;99888.09;4487828;32;20120;-80
2022/01/14 01:19:31;;;;;;;19.30;7.62;;;;;;;5.96;59.67;99886.31;4487931;32;20124;-80
2022/01/14 01:21:56;;;;;;;20.88;8.63;;;;;;;6.05;59.25;99894.00;4487747;32;20427;-80
2022/01/14 01:24:22;;;;;;;20.52;8.23;;;;;;;5.59;60.86;99893.00;4487659;32;20112;-80
2022/01/14 01:26:50;;;;;;;20.58;8.95;;;;;;;5.90;59.89;99887.25;4487510;32;20105;-80
2022/01/14 01:31:45;;;;;;;20.20;7.90;;;;;;;5.84;59.84;99884.75;4487762;32;20533;-80
2022/01/14 01:34:20;;;;;;;19.02;8.20;;;;;;;5.74;60.01;99883.16;4473258;32;20534;-81
2022/01/14 01:36:48;;;;;;;21.48;8.43;;;;;;;5.78;59.70;99871.78;4473551;32;20104;-80
2022/01/14 01:39:16;;;;;;;21.85;7.95;;;;;;;5.69;59.92;99881.50;4487860;32;20132;-80
2022/01/14 01:41:44;;;;;;;23.42;8.55;;;;;;;5.81;59.38;99869.94;4473730;32;20148;-80
2022/01/14 01:44:10;;;;;;;19.02;7.85;;;;;;;5.69;59.69;99860.56;4488003;32;20103;-80
2022/01/14 01:46:38;;;;;;;19.35;7.12;;;;;;;5.86;59.27;99867.28;4487761;32;20104;-80
2022/01/14 01:49:05;;;;;;;19.55;7.37;;;;;;;5.60;59.98;99855.53;4473476;32;20096;-80
2022/01/14 01:51:31;;;;;;;18.33;7.28;;;;;;;5.37;60.65;99850.69;4473265;32;20104;-80
2022/01/14 01:53:56;;;;;;;21.05;7.75;;;;;;;5.77;59.84;99855.22;4473159;32;20436;-80
2022/01/14 01:56:21;;;;;;;21.45;8.07;;;;;;;5.86;59.48;99857.66;4487514;32;20397;-80
2022/01/14 01:58:47;;;;;;;19.98;7.47;;;;;;;5.61;60.26;99853.78;4487535;32;20089;-80
2022/01/14 02:01:12;;;;;;;19.83;7.35;;;;;;;5.63;60.33;99854.59;4487433;32;20340;-80
2022/01/14 02:03:38;;;;;;;21.90;7.97;;;;;;;5.76;59.92;99843.03;4487526;32;20091;-80
2022/01/14 02:06:04;;;;;;;21.20;8.18;;;;;;;5.33;61.26;99841.13;4487526;32;20088;-79
2022/01/14 02:08:30;;;;;;;21.85;8.38;;;;;;;5.36;60.97;99830.66;4473257;32;20416;-80
2022/01/14 02:10:56;;;;;;;22.35;7.53;;;;;;;5.36;60.99;99833.25;4486785;32;20104;-80
2022/01/14 02:13:22;;;;;;;25.17;8.82;;;;;;;5.47;60.47;99826.13;4460056;32;20084;-80
2022/01/14 02:23:55;;;;;;;21.92;8.73;;;;;;;5.19;61.09;99817.00;4453927;32;20292;-80
2022/01/14 02:26:24;;;;;;;23.17;8.45;;;;;;;5.18;61.21;99813.53;4453747;32;20211;-80
2022/01/14 02:28:50;;;;;;;23.02;8.05;;;;;;;5.23;60.87;99816.91;4441069;32;20127;-79
2022/01/14 02:31:16;;;;;;;22.87;8.25;;;;;;;5.03;61.48;99819.84;4440880;32;20116;-80
2022/01/14 02:33:41;;;;;;;20.45;7.87;;;;;;;5.16;61.15;99814.44;4453857;32;20100;-80
2022/01/14 02:36:07;;;;;;;28.98;8.68;;;;;;;4.90;62.04;99798.28;4454096;32;20182;-80
2022/01/14 02:38:33;;;;;;;23.00;8.50;;;;;;;4.90;61.94;99797.44;4453964;32;20163;-79
2022/01/14 02:40:58;;;;;;;25.10;7.80;;;;;;;5.06;61.32;99793.69;4453971;32;20150;-79
2022/01/14 02:43:25;;;;;;;20.52;7.90;;;;;;;5.22;60.61;99796.91;4440841;32;20160;-80
2022/01/14 02:45:53;;;;;;;24.60;8.85;;;;;;;5.20;60.66;99800.47;4440787;32;20601;-80
2022/01/14 02:48:22;;;;;;;21.87;7.55;;;;;;;5.30;60.25;99787.19;4440679;32;20164;-80
2022/01/14 02:51:00;;;;;;;19.12;7.50;;;;;;;5.34;59.85;99787.16;4453966;32;20112;-80
2022/01/14 02:53:44;;;;;;;23.10;8.00;;;;;;;5.43;59.48;99784.41;4453940;32;20145;-80
2022/01/14 02:56:12;;;;;;;20.70;8.18;;;;;;;5.44;59.48;99783.50;4477139;32;20122;-80
2022/01/14 02:58:38;;;;;;;;;;;;;;;4.93;61.16;99776.50;4473558;32;20100;-80
2022/01/14 03:01:09;;;;;;;20.00;7.55;;;;;;;5.27;60.06;99784.66;4473264;32;19980;-80
2022/01/14 03:03:35;;;;;;;23.48;8.20;;;;;;;5.41;59.59;99781.81;4473154;32;20142;-80
2022/01/14 03:06:01;;;;;;;23.33;8.52;;;;;;;5.51;59.10;99780.75;4473032;32;20116;-80
2022/01/14 03:08:26;;;;;;;24.73;9.38;;;;;;;5.53;59.18;99780.72;4473004;32;20150;-80
2022/01/14 03:11:24;;;;;;;24.65;8.43;;;;;;;5.37;59.90;99753.12;4472691;32;20149;-80
2022/01/14 03:13:50;;;;;;;22.02;8.77;;;;;;;5.27;60.44;99755.03;4422613;32;20090;-80
2022/01/14 03:16:19;;;;;;;23.23;7.43;;;;;;;5.44;60.04;99754.75;4422631;32;20121;-80
2022/01/14 03:18:50;;;;;;;22.95;8.07;;;;;;;5.30;60.42;99739.31;4422642;32;20120;-80
2022/01/14 03:21:25;;;;;;;20.20;7.15;;;;;;;5.20;60.90;99740.38;4409349;32;20101;-80
2022/01/14 03:24:02;;;;;;;20.50;7.40;;;;;;;5.44;60.19;99734.69;4410839;32;20094;-81
2022/01/14 03:26:27;;;;;;;19.77;7.37;;;;;;;5.40;60.33;99732.19;4422700;32;20106;-80
2022/01/14 03:28:55;;;;;;;22.37;7.70;;;;;;;5.13;61.57;99732.63;4422397;32;20158;-80
2022/01/14 03:31:21;;;;;;;20.70;7.72;;;;;;;5.16;61.69;99736.94;4409691;32;20089;-80
2022/01/14 03:33:47;;;;;;;21.40;7.75;;;;;;;5.04;61.92;99731.91;4422757;32;20177;-80
2022/01/14 03:36:12;;;;;;;21.87;8.15;;;;;;;5.06;62.55;99727.53;4409990;32;20180;-80
2022/01/14 03:38:39;;;;;;;23.77;8.05;;;;;;;5.02;62.51;99724.13;4409778;32;20129;-80
2022/01/14 03:41:05;;;;;;;20.60;7.07;;;;;;;4.91;63.02;99724.31;4409966;32;20445;-80
2022/01/14 03:43:31;;;;;;;22.37;8.02;;;;;;;5.02;63.01;99729.34;4409855;32;20122;-80
2022/01/14 03:45:57;;;;;;;19.98;7.00;;;;;;;5.14;62.64;99733.50;4422437;32;20185;-80
2022/01/14 03:48:23;;;;;;;19.37;7.60;;;;;;;5.36;61.94;99722.66;4409511;32;20128;-80
2022/01/14 03:50:48;;;;;;;18.85;7.20;;;;;;;5.32;61.97;99738.38;4435380;32;20438;-80
2022/01/14 03:53:14;;;;;;;19.33;7.40;;;;;;;5.34;62.03;99730.53;4472297;32;20080;-80
2022/01/14 03:55:41;;;;;;;21.70;7.30;;;;;;;5.42;61.62;99728.63;4472209;32;20135;-80
2022/01/14 03:58:07;;;;;;;19.10;7.20;;;;;;;5.40;61.62;99722.56;4472428;32;20099;-80
2022/01/14 04:00:33;;;;;;;18.62;7.15;;;;;;;5.61;61.06;99721.31;4486486;32;20172;-80
2022/01/14 04:02:58;;;;;;;21.60;7.07;;;;;;;5.56;60.82;99719.66;4472180;32;20403;-80
2022/01/14 04:05:24;;;;;;;18.77;6.47;;;;;;;5.71;60.54;99720.22;4486351;32;20147;-80
2022/01/14 04:07:49;;;;;;;20.23;6.60;;;;;;;5.66;60.79;99726.44;4472393;32;20455;-80
2022/01/14 04:10:15;;;;;;;17.52;6.20;;;;;;;5.54;61.33;99724.06;4486658;32;20145;-80
2022/01/14 04:12:48;;;;;;;20.73;7.50;;;;;;;5.36;61.92;99699.16;4486530;32;20130;-80
2022/01/14 04:18:00;;;;;;;21.70;6.90;;;;;;;5.53;61.61;99696.22;4474296;32;20127;-80
2022/01/14 04:20:26;;;;;;;21.52;7.15;;;;;;;5.11;62.71;99686.53;4471933;32;20514;-80
2022/01/14 04:22:51;;;;;;;19.00;6.97;;;;;;;5.58;61.35;99679.56;4471925;32;20111;-80
2022/01/14 04:25:17;;;;;;;17.00;6.80;;;;;;;5.75;60.76;99667.88;4471747;32;20117;-80
2022/01/14 04:27:42;;;;;;;19.83;7.78;;;;;;;5.48;61.65;99673.63;4471526;32;20174;-80
2022/01/14 04:30:09;;;;;;;17.90;6.15;;;;;;;5.58;61.48;99676.94;4471824;32;20106;-80
2022/01/14 04:32:34;;;;;;;18.20;6.80;;;;;;;5.72;60.90;99687.13;4486378;32;20105;-80
2022/01/14 04:35:00;;;;;;;18.17;6.43;;;;;;;5.69;60.91;99669.72;4473884;32;20108;-80
2022/01/14 04:37:25;;;;;;;18.30;6.20;;;;;;;5.78;60.85;99673.91;4488139;32;20132;-80
2022/01/14 04:39:50;;;;;;;16.02;6.62;;;;;;;5.77;60.86;99681.78;4473934;32;20104;-80
2022/01/14 04:42:16;;;;;;;18.40;6.15;;;;;;;5.78;60.61;99671.31;4487974;32;20084;-80
2022/01/14 04:44:41;;;;;;;17.52;6.18;;;;;;;5.78;60.65;99668.69;4488027;32;20092;-80
2022/01/14 04:47:19;;;;;;;17.30;6.65;;;;;;;5.88;60.44;99671.97;4487901;32;20379;-80
2022/01/14 04:49:44;;;;;;;17.30;5.87;;;;;;;5.71;60.76;99669.72;4488006;32;20114;-80
2022/01/14 04:52:10;;;;;;;19.62;6.65;;;;;;;5.82;60.62;99657.28;4487932;32;20080;-80
2022/01/14 04:54:39;;;;;;;20.30;6.65;;;;;;;5.93;60.40;99646.59;4473854;32;20124;-80
2022/01/14 04:57:04;;;;;;;18.27;6.90;;;;;;;5.95;60.23;99649.16;4473758;32;20109;-80
2022/01/14 04:59:30;;;;;;;18.33;5.85;;;;;;;5.90;60.53;99642.28;4487920;32;20083;-80
2022/01/14 05:01:57;;;;;;;16.73;6.28;;;;;;;5.88;60.36;99635.37;4473495;32;20092;-80
2022/01/14 05:04:23;;;;;;;17.52;6.75;;;;;;;5.74;61.14;99648.75;4474012;32;20104;-80
2022/01/14 05:06:56;;;;;;;17.58;6.43;;;;;;;5.54;61.61;99645.66;4487736;32;20436;-80
2022/01/14 05:09:28;;;;;;;18.77;6.12;;;;;;;5.61;61.38;99642.03;4487926;32;20100;-80
2022/01/14 05:11:58;;;;;;;17.23;5.75;;;;;;;5.13;63.13;99649.03;4488017;32;20080;-80
2022/01/14 05:14:24;;;;;;;16.92;5.50;;;;;;;5.49;61.88;99641.41;4487952;32;20463;-80
2022/01/14 05:16:49;;;;;;;17.12;5.72;;;;;;;5.61;61.67;99636.81;4487810;32;20119;-80
2022/01/14 05:19:15;;;;;;;16.98;6.05;;;;;;;5.69;61.44;99627.06;4473344;32;20419;-80
2022/01/14 05:21:41;;;;;;;17.75;6.55;;;;;;;5.67;61.56;99619.22;4473585;32;20097;-80
2022/01/14 05:24:07;;;;;;;16.70;5.53;;;;;;;5.43;62.41;99618.00;4473528;32;20361;-81
2022/01/14 05:26:32;;;;;;;16.08;6.62;;;;;;;5.34;62.58;99615.56;4487714;32;20200;-81
2022/01/14 05:28:57;;;;;;;17.08;5.75;;;;;;;5.37;62.70;99607.69;4487836;32;20080;-81
2022/01/14 05:31:50;;;;;;;16.37;6.03;;;;;;;5.63;61.94;99608.88;4487902;32;20415;-81
2022/01/14 05:34:16;;;;;;;16.58;5.75;;;;;;;5.54;62.13;99609.94;4488056;32;20171;-80
2022/01/14 05:36:42;;;;;;;17.05;5.75;;;;;;;5.44;62.41;99618.84;4473722;32;20100;-80
2022/01/14 05:39:09;;;;;;;16.62;6.00;;;;;;;5.50;62.27;99611.78;4473780;32;20092;-80
2022/01/14 05:41:34;;;;;;;18.25;6.10;;;;;;;5.41;62.57;99631.97;4487650;32;20141;-80
2022/01/14 05:44:01;;;;;;;17.83;5.97;;;;;;;5.18;63.07;99622.84;4472738;32;20108;-80
2022/01/14 05:46:27;;;;;;;16.87;5.60;;;;;;;5.12;63.47;99613.37;4473313;32;20108;-80
2022/01/14 05:48:53;;;;;;;17.70;5.75;;;;;;;5.30;62.85;99620.00;4473452;32;20167;-81
2022/01/14 05:51:18;;;;;;;15.25;5.60;;;;;;;5.34;62.73;99626.03;4487490;32;20092;-80
2022/01/14 05:53:44;;;;;;;16.23;5.87;;;;;;;5.19;62.92;99616.72;4487437;32;20161;-81
2022/01/14 05:56:09;;;;;;;16.45;5.55;;;;;;;5.59;61.59;99629.00;4487516;32;20115;-81
2022/01/14 05:58:35;;;;;;;20.75;6.70;;;;;;;5.51;61.71;99616.09;4487513;32;20111;-81
2022/01/14 06:01:00;;;;;;;17.33;6.40;;;;;;;5.55;61.48;99624.72;4473092;32;20106;-81
2022/01/14 06:03:25;;;;;;;17.85;6.10;;;;;;;5.70;60.85;99613.94;4487459;32;20088;-81
2022/01/14 06:05:51;;;;;;;15.80;6.03;;;;;;;5.72;60.80;99625.22;4487510;32;20081;-80
2022/01/14 06:08:17;;;;;;;16.70;5.95;;;;;;;5.83;60.44;99618.91;4487332;32;20110;-80
2022/01/14 06:10:42;;;;;;;18.55;6.05;;;;;;;5.68;60.74;99630.56;4487450;32;20124;-81
2022/01/14 06:13:08;;;;;;;18.52;6.20;;;;;;;5.69;61.00;99627.06;4487509;32;20112;-81
2022/01/14 06:15:35;;;;;;;15.70;5.65;;;;;;;5.67;60.71;99624.47;4473058;32;20097;-81
2022/01/14 06:18:01;;;;;;;18.48;6.37;;;;;;;5.69;60.50;99616.59;4487462;32;20084;-81
2022/01/14 06:20:27;;;;;;;17.70;6.60;;;;;;;5.51;61.02;99623.06;4487382;32;20360;-81
2022/01/14 06:22:53;;;;;;;17.08;6.30;;;;;;;5.32;61.73;99606.91;4487322;32;20197;-81
2022/01/14 06:25:18;;;;;;;14.48;5.57;;;;;;;5.30;61.49;99614.75;4473120;32;20111;-81
2022/01/14 06:27:43;;;;;;;18.15;6.07;;;;;;;5.36;61.65;99602.47;4487011;32;20497;-80
2022/01/14 06:30:09;;;;;;;18.00;5.78;;;;;;;4.96;63.07;99608.47;4487154;32;20109;-80
2022/01/14 06:32:41;;;;;;;16.85;6.37;;;;;;;5.32;61.97;99602.53;4487438;32;20459;-80
2022/01/14 06:35:11;;;;;;;14.48;5.82;;;;;;;5.17;62.58;99591.53;4473709;32;20537;-80
2022/01/14 06:37:37;;;;;;;17.75;5.30;;;;;;;4.94;63.20;99600.66;4487248;32;20111;-80
2022/01/14 06:40:04;;;;;;;17.27;5.20;;;;;;;5.12;62.80;99592.50;4473394;32;20147;-80
2022/01/14 06:42:29;;;;;;;17.50;6.20;;;;;;;5.28;62.16;99603.50;4487525;32;20157;-79
2022/01/14 06:44:54;;;;;;;18.05;6.70;;;;;;;5.41;61.70;99591.03;4487434;32;20088;-80
2022/01/14 06:47:21;;;;;;;17.33;5.75;;;;;;;5.62;61.06;99589.75;4472868;32;20364;-81
2022/01/14 06:49:47;;;;;;;14.52;5.47;;;;;;;5.61;61.16;99600.22;4487218;32;20103;-80
2022/01/14 06:52:12;;;;;;;16.87;5.53;;;;;;;5.59;61.33;99607.25;4487090;32;20180;-80
2022/01/14 06:54:37;;;;;;;15.13;5.53;;;;;;;5.69;60.59;99591.31;4472892;32;20088;-80
2022/01/14 06:57:03;;;;;;;16.33;5.50;;;;;;;5.87;59.96;99584.81;4486768;32;20110;-82
2022/01/14 06:59:29;;;;;;;17.70;5.50;;;;;;;5.83;60.04;99588.41;4487094;32;20081;-84
2022/01/14 07:01:54;;;;;;;15.23;5.82;;;;;;;5.83;59.92;99583.19;4487123;32;20120;-82
2022/01/14 07:04:20;;;;;;;17.02;5.45;;;;;;;6.08;59.10;99601.81;4486987;32;20108;-83
2022/01/14 07:06:45;;;;;;;14.57;5.45;;;;;;;5.61;60.43;99589.75;4486884;32;20085;-83
2022/01/14 07:09:11;;;;;;;17.23;5.72;;;;;;;5.79;59.99;99591.97;4472734;32;20102;-84
2022/01/14 07:11:37;;;;;;;16.10;5.65;;;;;;;5.76;60.00;99588.59;4486999;32;20087;-83
2022/01/14 07:14:04;;;;;;;17.58;6.00;;;;;;;5.91;59.44;99583.88;4486924;32;20182;-81
2022/01/14 07:16:30;;;;;;;16.90;5.93;;;;;;;6.13;58.91;99586.00;4486924;32;20111;-81
2022/01/14 07:18:55;;;;;;;14.87;5.35;;;;;;;6.03;59.12;99577.50;4472571;32;20171;-85
2022/01/14 07:21:21;;;;;;;16.10;5.75;;;;;;;6.10;58.93;99580.84;4472778;32;20096;-86
2022/01/14 07:23:50;;;;;;;14.57;4.70;;;;;;;5.91;59.53;99578.62;4486632;32;20101;-84
2022/01/14 07:26:17;;;;;;;13.10;4.78;;;;;;;5.78;59.90;99576.34;4486685;32;20502;-83
2022/01/14 07:28:42;;;;;;;16.10;5.32;;;;;;;5.74;60.04;99583.38;4486767;32;20080;-84
2022/01/14 07:31:07;;;;;;;15.60;5.22;;;;;;;6.02;59.31;99561.84;4486743;32;20091;-83
2022/01/14 07:33:33;;;;;;;14.87;4.82;;;;;;;5.99;59.50;99569.75;4472491;32;20409;-84
2022/01/14 07:35:58;;;;;;;15.93;5.22;;;;;;;6.14;58.89;99569.41;4472798;32;20080;-83
2022/01/14 07:38:24;;;;;;;13.95;4.45;;;;;;;5.79;59.61;99564.97;4486968;32;20077;-84
2022/01/14 07:40:49;;;;;;;16.10;5.07;;;;;;;5.79;59.85;99567.56;4459428;32;20140;-84
2022/01/14 07:43:15;;;;;;;14.90;4.65;;;;;;;5.90;59.69;99570.81;4486920;32;20329;-84
2022/01/14 07:45:40;;;;;;;15.15;4.37;;;;;;;5.91;59.48;99559.47;4472558;32;20473;-84
2022/01/14 07:48:06;;;;;;;15.70;4.78;;;;;;;5.66;60.16;99560.03;4472585;32;20106;-84
2022/01/14 07:50:31;;;;;;;13.98;4.65;;;;;;;5.67;60.16;99553.88;4472568;32;20286;-84
2022/01/14 07:52:56;;;;;;;15.70;5.07;;;;;;;5.66;60.25;99560.03;4486861;32;20091;-83
2022/01/14 07:55:22;;;;;;;15.68;4.70;;;;;;;5.64;60.18;99547.84;4486605;32;20162;-84
2022/01/14 07:57:47;;;;;;;13.10;5.07;;;;;;;6.05;59.08;99543.47;4486432;32;20084;-84
2022/01/14 08:00:13;;;;;;;13.60;4.35;;;;;;;5.96;59.16;99541.94;4471984;32;20120;-84
2022/01/14 08:02:39;;;;;;;16.60;4.70;;;;;;;5.81;59.62;99550.09;4486751;32;20096;-84
2022/01/14 08:05:05;;;;;;;14.02;4.47;;;;;;;5.94;59.07;99548.91;4472295;32;20487;-83
2022/01/14 08:07:33;;;;;;;14.32;4.45;;;;;;;5.74;59.55;99544.16;4486710;32;20107;-81
2022/01/14 08:09:58;;;;;;;15.05;4.97;;;;;;;5.73;59.54;99584.25;4488288;32;20156;-82
2022/01/14 08:12:24;;;;;;;15.45;4.32;;;;;;;5.64;59.75;99526.94;4474111;32;20381;-85
2022/01/14 08:14:49;;;;;;;13.32;4.72;;;;;;;6.00;58.75;99543.56;4473879;32;20128;-84
2022/01/14 08:17:18;;;;;;;16.90;4.45;;;;;;;5.83;58.96;99532.62;4488196;32;20076;-84
2022/01/14 08:19:43;;;;;;;12.88;4.50;;;;;;;5.75;59.02;99530.19;4488156;32;20092;-84
2022/01/14 08:22:09;;;;;;;14.65;4.82;;;;;;;5.99;58.47;99531.41;4488209;32;20131;-84
2022/01/14 08:24:35;;;;;;;14.32;5.10;;;;;;;5.70;59.08;99519.84;4488266;32;20390;-84
2022/01/14 08:27:01;;;;;;;14.50;5.05;;;;;;;5.71;58.95;99523.31;4473531;32;20455;-84
2022/01/14 08:29:30;;;;;;;18.25;5.97;;;;;;;5.78;58.74;99527.50;4488067;32;20119;-84
2022/01/14 08:31:56;;;;;;;17.23;5.55;;;;;;;5.82;58.74;99510.84;4488075;32;20092;-84
2022/01/14 08:34:22;;;;;;;14.70;5.03;;;;;;;5.59;59.25;99510.53;4488070;32;20136;-84
2022/01/14 08:36:47;;;;;;;15.00;4.70;;;;;;;5.93;58.13;99513.22;4488066;32;20072;-84
2022/01/14 08:39:14;;;;;;;18.83;5.62;;;;;;;5.83;58.41;99511.69;4473972;32;20131;-83
2022/01/14 08:41:39;;;;;;;13.07;4.75;;;;;;;5.71;58.79;99526.78;4488112;32;20091;-84
2022/01/14 08:44:06;;;;;;;14.07;5.12;;;;;;;5.54;59.25;99515.84;4460602;32;20127;-84
2022/01/14 08:46:31;;;;;;;15.07;5.25;;;;;;;5.56;59.27;99524.50;4473767;32;20136;-84
2022/01/14 08:49:00;;;;;;;15.35;5.22;;;;;;;5.51;59.41;99527.22;4473755;32;20111;-84
2022/01/14 08:51:27;;;;;;;17.73;5.97;;;;;;;5.61;59.17;99522.66;4474062;32;20493;-84
2022/01/14 08:53:53;;;;;;;;;;;;;;;5.81;58.51;99529.19;4488430;32;20480;-84
2022/01/14 08:56:19;;;;;;;14.68;5.20;;;;;;;5.87;58.26;99523.81;4473821;32;19964;-84
2022/01/14 08:58:44;;;;;;;15.10;5.05;;;;;;;5.79;58.50;99528.34;4473721;32;20227;-84
2022/01/14 09:01:10;;;;;;;14.40;5.10;;;;;;;6.00;57.71;99538.34;4487700;32;20080;-84
2022/01/14 09:03:35;;;;;;;16.12;4.95;;;;;;;5.83;58.21;99519.53;4487849;32;20189;-83
2022/01/14 09:06:01;;;;;;;17.58;5.28;;;;;;;5.77;58.40;99528.37;4487726;32;20095;-84
2022/01/14 09:08:26;;;;;;;14.13;4.85;;;;;;;5.72;58.46;99528.50;4487695;32;20137;-84
2022/01/14 09:10:52;;;;;;;15.38;5.03;;;;;;;5.85;58.17;99523.88;4488016;32;20440;-84
2022/01/14 09:13:17;;;;;;;18.02;5.37;;;;;;;6.05;57.31;99507.72;4487802;32;20100;-84
2022/01/14 09:15:45;;;;;;;13.18;4.20;;;;;;;6.16;57.02;99527.50;4473379;32;20081;-84
2022/01/14 09:18:10;;;;;;;16.83;5.13;;;;;;;6.26;56.61;99524.62;4473598;32;20097;-84
2022/01/14 09:20:35;;;;;;;13.00;4.32;;;;;;;6.62;55.80;99492.31;4487764;32;20170;-84
2022/01/14 09:23:01;;;;;;;14.90;4.80;;;;;;;6.44;56.02;99489.28;4473744;32;20325;-84
2022/01/14 09:25:26;;;;;;;12.18;4.43;;;;;;;6.66;55.37;99473.88;4487915;32;20085;-83
2022/01/14 09:27:52;;;;;;;12.73;4.45;;;;;;;6.39;56.00;99457.12;4487424;32;20100;-84
2022/01/14 09:30:20;;;;;;;12.75;4.85;;;;;;;6.27;56.16;99440.00;4487694;32;20227;-84
2022/01/14 09:32:46;;;;;;;12.35;4.05;;;;;;;6.38;55.84;99458.03;4473534;32;20114;-83
2022/01/14 09:35:13;;;;;;;12.82;4.22;;;;;;;6.34;55.72;99471.25;4473660;32;20080;-84
2022/01/14 09:37:40;;;;;;;13.70;4.28;;;;;;;6.20;55.95;99448.03;4487908;32;20139;-84
2022/01/14 09:40:06;;;;;;;14.90;4.60;;;;;;;6.24;55.83;99444.47;4487908;32;20478;-83
2022/01/14 09:42:32;;;;;;;14.20;4.37;;;;;;;6.35;55.43;99446.78;4473601;32;20110;-84
2022/01/14 09:44:58;;;;;;;14.15;4.07;;;;;;;6.34;55.57;99450.31;4487880;32;20377;-84
2022/01/14 09:47:24;;;;;;;14.57;4.32;;;;;;;6.22;55.76;99444.50;4473454;32;20504;-83
2022/01/14 09:49:49;;;;;;;13.32;4.20;;;;;;;6.34;55.45;99453.78;4487563;32;20119;-83
2022/01/14 09:52:16;;;;;;;12.93;4.22;;;;;;;6.34;55.32;99432.84;4487628;32;20110;-84
2022/01/14 09:54:43;;;;;;;14.38;5.30;;;;;;;6.34;55.25;99432.84;4473398;32;20100;-84
2022/01/14 09:57:11;;;;;;;13.05;4.95;;;;;;;6.36;55.05;99451.13;4487524;32;20136;-84
2022/01/14 09:59:36;;;;;;;13.23;4.03;;;;;;;6.49;54.52;99460.37;4487451;32;20510;-84
2022/01/14 10:02:02;;;;;;;13.52;4.37;;;;;;;6.59;54.08;99443.50;4460527;32;20132;-84
2022/01/14 10:04:28;;;;;;;13.00;4.28;;;;;;;6.62;53.90;99434.69;4487705;32;20351;-85
2022/01/14 10:06:58;;;;;;;14.48;4.43;;;;;;;6.58;53.93;99459.25;4473454;32;20369;-84
2022/01/14 10:09:32;;;;;;;12.80;4.20;;;;;;;6.75;53.53;99450.94;4487663;32;20100;-83
2022/01/14 10:12:07;;;;;;;13.82;4.25;;;;;;;6.56;53.54;99440.97;4473202;32;20157;-84
2022/01/14 10:14:37;;;;;;;11.65;3.90;;;;;;;6.53;53.69;99443.69;4473097;32;20155;-83
2022/01/14 10:17:05;;;;;;;12.07;3.97;;;;;;;6.55;53.43;99423.56;4473271;32;20468;-84
2022/01/14 10:19:33;;;;;;;;;;;;;;;6.56;53.34;99411.31;4473614;32;20108;-83
2022/01/14 10:21:58;;;;;;;11.75;3.92;;;;;;;6.62;53.28;99437.31;4473172;32;19975;-84
2022/01/14 10:24:26;;;;;;;13.13;4.57;;;;;;;6.59;53.25;99391.16;4473077;32;20084;-84
2022/01/14 10:26:57;;;;;;;14.68;4.82;;;;;;;6.83;52.67;99405.28;4487019;32;20112;-84
2022/01/14 10:29:33;;;;;;;14.05;4.20;;;;;;;6.71;52.81;99410.88;4487419;32;20084;-84
2022/01/14 10:32:00;;;;;;;13.52;4.43;;;;;;;6.67;52.98;99435.44;4472519;32;20096;-84
2022/01/14 10:34:26;;;;;;;15.48;4.78;;;;;;;6.75;53.00;99407.28;4487356;32;20136;-84
2022/01/14 10:37:17;;;;;;;15.13;4.87;;;;;;;6.96;52.26;99404.94;4487256;32;20104;-84
2022/01/14 10:39:48;;;;;;;15.57;4.10;;;;;;;6.76;52.53;99405.50;4473095;32;20160;-85
2022/01/14 10:42:25;;;;;;;13.68;4.22;;;;;;;6.81;52.56;99412.31;4487336;32;20111;-84
2022/01/14 10:44:50;;;;;;;16.37;4.43;;;;;;;7.03;51.96;99402.09;4487299;32;20092;-84
2022/01/14 10:47:19;;;;;;;13.15;4.12;;;;;;;6.84;52.60;99416.63;4472722;32;20152;-84
2022/01/14 10:49:47;;;;;;;17.27;5.03;;;;;;;7.09;51.94;99401.03;4487202;32;20115;-84
2022/01/14 10:52:21;;;;;;;15.95;4.47;;;;;;;6.98;52.38;99395.28;4487117;32;20084;-84
2022/01/14 10:54:51;;;;;;;12.15;3.97;;;;;;;7.07;52.21;99388.00;4472836;32;20137;-84
2022/01/14 10:57:27;;;;;;;15.65;4.90;;;;;;;7.29;51.15;99389.94;4472769;32;20356;-84
2022/01/14 10:59:55;;;;;;;14.48;4.90;;;;;;;7.18;51.48;99389.41;4472997;32;20126;-84
2022/01/14 11:02:39;;;;;;;13.60;4.57;;;;;;;7.06;51.76;99391.50;4472847;32;20088;-84
2022/01/14 11:05:13;;;;;;;15.02;5.10;;;;;;;7.14;51.34;99369.44;4487129;32;20118;-84
2022/01/14 11:07:40;;;;;;;14.75;4.87;;;;;;;7.13;51.51;99386.94;4472736;32;20096;-84
2022/01/14 11:10:25;;;;;;;12.95;4.40;;;;;;;7.16;51.60;99396.47;4487070;32;20104;-84
2022/01/14 11:12:53;;;;;;;15.52;4.65;;;;;;;7.09;51.74;99395.81;4487013;32;20106;-84
2022/01/14 11:15:19;;;;;;;15.80;4.30;;;;;;;7.27;51.56;99379.50;4487152;32;20096;-84
2022/01/14 11:17:53;;;;;;;14.10;4.95;;;;;;;7.34;51.16;99387.16;4473084;32;20434;-84
2022/01/14 11:20:28;;;;;;;13.57;4.55;;;;;;;7.48;51.22;99383.19;4460778;32;20126;-84
2022/01/14 11:25:40;;;;;;;14.93;5.30;;;;;;;7.48;51.13;99358.75;4474782;32;20143;-84
2022/01/14 11:28:07;;;;;;;14.32;5.15;;;;;;;7.57;51.02;99342.72;4472343;32;20388;-85
2022/01/14 11:30:33;;;;;;;15.60;5.22;;;;;;;7.85;50.42;99339.16;4486968;32;20403;-84
2022/01/14 11:33:03;;;;;;;14.52;5.22;;;;;;;7.77;50.37;99333.31;4486867;32;20092;-84
2022/01/14 11:35:29;;;;;;;13.93;4.75;;;;;;;7.53;51.01;99322.72;4472928;32;20106;-84
2022/01/14 11:37:55;;;;;;;14.15;4.95;;;;;;;7.50;51.38;99330.72;4486549;32;20144;-84
2022/01/14 11:40:20;;;;;;;15.25;4.62;;;;;;;7.56;51.09;99327.88;4486677;32;20114;-84
2022/01/14 11:42:51;;;;;;;15.60;5.40;;;;;;;7.59;51.29;99324.28;4485502;32;20443;-84
2022/01/14 11:45:42;;;;;;;17.10;4.97;;;;;;;7.76;50.99;99326.34;4472681;32;20117;-84
2022/01/14 11:48:08;;;;;;;17.35;5.68;;;;;;;7.74;50.83;99315.06;4486476;32;20123;-84
2022/01/14 11:50:36;;;;;;;15.57;5.20;;;;;;;7.65;51.19;99321.50;4486576;32;20105;-84
2022/01/14 11:53:02;;;;;;;15.15;4.97;;;;;;;7.40;51.91;99301.34;4486742;32;20116;-84
2022/01/14 11:55:29;;;;;;;15.32;4.90;;;;;;;7.28;52.41;99288.62;4486629;32;20431;-84
2022/01/14 11:57:56;;;;;;;13.40;4.85;;;;;;;7.37;52.10;99287.47;4486593;32;20145;-84
2022/01/14 12:00:25;;;;;;;14.65;4.95;;;;;;;7.41;52.09;99279.44;4486552;32;20109;-84
2022/01/14 12:02:50;;;;;;;14.23;4.70;;;;;;;7.53;51.64;99277.31;4486542;32;20111;-84
2022/01/14 12:05:18;;;;;;;14.57;4.62;;;;;;;7.73;51.11;99255.66;4486403;32;20103;-85